sensor_id;sensor_type;location;lat;lon;timestamp;P1;durP1;ratioP1;P2;durP2;ratioP2
18405;SDS011;9329;48.720;9.588;2022-11-15T00:01:28;14.77;;;10.13;;
18405;SDS011;9329;48.720;9.588;2022-11-15T00:04:14;13.20;;;8.75;;
18405;SDS011;9329;48.720;9.588;2022-11-15T00:06:59;15.80;;;9.60;;
18405;SDS011;9329;48.720;9.588;2022-11-15T00:09:45;14.63;;;9.18;;
18405;SDS011;9329;48.720;9.588;2022-11-15T00:12:30;13.80;;;8.95;;
18405;SDS011;9329;48.720;9.588;2022-11-15T00:15:16;12.88;;;8.20;;
18405;SDS011;9329;48.720;9.588;2022-11-15T00:18:03;13.20;;;7.90;;
18405;SDS011;9329;48.720;9.588;2022-11-15T00:20:49;14.67;;;8.37;;
18405;SDS011;9329;48.720;9.588;2022-11-15T00:23:35;13.90;;;7.95;;
18405;SDS011;9329;48.720;9.588;2022-11-15T00:26:21;14.70;;;7.60;;
18405;SDS011;9329;48.720;9.588;2022-11-15T00:29:06;10.43;;;6.60;;
18405;SDS011;9329;48.720;9.588;2022-11-15T00:31:52;13.18;;;8.13;;
18405;SDS011;9329;48.720;9.588;2022-11-15T00:34:39;15.73;;;9.13;;
18405;SDS011;9329;48.720;9.588;2022-11-15T00:37:24;13.35;;;8.85;;
18405;SDS011;9329;48.720;9.588;2022-11-15T00:40:10;23.73;;;14.20;;
18405;SDS011;9329;48.720;9.588;2022-11-15T00:42:57;21.67;;;13.13;;
18405;SDS011;9329;48.720;9.588;2022-11-15T00:45:42;20.23;;;12.68;;
18405;SDS011;9329;48.720;9.588;2022-11-15T00:48:28;17.00;;;11.20;;
18405;SDS011;9329;48.720;9.588;2022-11-15T00:51:16;13.10;;;8.00;;
18405;SDS011;9329;48.720;9.588;2022-11-15T00:54:01;14.50;;;9.90;;
18405;SDS011;9329;48.720;9.588;2022-11-15T00:56:47;16.67;;;11.00;;
18405;SDS011;9329;48.720;9.588;2022-11-15T00:59:32;20.13;;;11.43;;
18405;SDS011;9329;48.720;9.588;2022-11-15T01:02:18;17.83;;;11.15;;
18405;SDS011;9329;48.720;9.588;2022-11-15T01:05:04;8.82;;;5.25;;
18405;SDS011;9329;48.720;9.588;2022-11-15T01:07:52;6.93;;;4.27;;
18405;SDS011;9329;48.720;9.588;2022-11-15T01:10:38;7.10;;;4.88;;
18405;SDS011;9329;48.720;9.588;2022-11-15T01:13:24;20.15;;;13.48;;
18405;SDS011;9329;48.720;9.588;2022-11-15T01:16:12;17.35;;;11.10;;
18405;SDS011;9329;48.720;9.588;2022-11-15T01:18:58;11.70;;;7.03;;
18405;SDS011;9329;48.720;9.588;2022-11-15T01:21:44;17.70;;;9.13;;
18405;SDS011;9329;48.720;9.588;2022-11-15T01:24:31;12.73;;;7.77;;
18405;SDS011;9329;48.720;9.588;2022-11-15T01:27:16;13.73;;;8.50;;
18405;SDS011;9329;48.720;9.588;2022-11-15T01:30:02;12.15;;;7.50;;
18405;SDS011;9329;48.720;9.588;2022-11-15T01:32:48;9.85;;;5.80;;
18405;SDS011;9329;48.720;9.588;2022-11-15T01:35:37;10.68;;;6.45;;
18405;SDS011;9329;48.720;9.588;2022-11-15T01:38:23;11.20;;;6.53;;
18405;SDS011;9329;48.720;9.588;2022-11-15T01:41:15;7.82;;;5.50;;
18405;SDS011;9329;48.720;9.588;2022-11-15T01:47:22;11.32;;;6.63;;
18405;SDS011;9329;48.720;9.588;2022-11-15T01:50:11;12.48;;;7.13;;
18405;SDS011;9329;48.720;9.588;2022-11-15T01:52:59;14.00;;;9.27;;
18405;SDS011;9329;48.720;9.588;2022-11-15T01:55:44;16.00;;;10.68;;
18405;SDS011;9329;48.720;9.588;2022-11-15T01:58:31;16.98;;;10.73;;
18405;SDS011;9329;48.720;9.588;2022-11-15T02:01:17;24.92;;;14.02;;
18405;SDS011;9329;48.720;9.588;2022-11-15T02:04:03;22.57;;;14.07;;
18405;SDS011;9329;48.720;9.588;2022-11-15T02:06:54;22.88;;;14.38;;
18405;SDS011;9329;48.720;9.588;2022-11-15T02:09:40;22.05;;;13.45;;
18405;SDS011;9329;48.720;9.588;2022-11-15T02:12:25;22.90;;;13.82;;
18405;SDS011;9329;48.720;9.588;2022-11-15T02:15:12;19.07;;;11.90;;
18405;SDS011;9329;48.720;9.588;2022-11-15T02:18:02;21.37;;;12.80;;
18405;SDS011;9329;48.720;9.588;2022-11-15T02:20:58;19.00;;;11.57;;
18405;SDS011;9329;48.720;9.588;2022-11-15T02:24:03;22.13;;;14.05;;
18405;SDS011;9329;48.720;9.588;2022-11-15T02:27:19;25.23;;;14.20;;
18405;SDS011;9329;48.720;9.588;2022-11-15T02:30:37;23.30;;;16.10;;
18405;SDS011;9329;48.720;9.588;2022-11-15T02:33:28;23.33;;;15.10;;
18405;SDS011;9329;48.720;9.588;2022-11-15T02:36:23;13.82;;;8.73;;
18405;SDS011;9329;48.720;9.588;2022-11-15T02:39:19;11.93;;;6.30;;
18405;SDS011;9329;48.720;9.588;2022-11-15T02:42:13;9.25;;;5.70;;
18405;SDS011;9329;48.720;9.588;2022-11-15T02:45:21;7.10;;;4.65;;
18405;SDS011;9329;48.720;9.588;2022-11-15T02:48:12;11.15;;;6.88;;
18405;SDS011;9329;48.720;9.588;2022-11-15T02:50:59;10.23;;;6.70;;
18405;SDS011;9329;48.720;9.588;2022-11-15T02:53:45;8.27;;;4.85;;
18405;SDS011;9329;48.720;9.588;2022-11-15T02:56:31;9.68;;;5.10;;
18405;SDS011;9329;48.720;9.588;2022-11-15T02:59:23;7.50;;;4.60;;
18405;SDS011;9329;48.720;9.588;2022-11-15T03:02:27;6.97;;;4.40;;
18405;SDS011;9329;48.720;9.588;2022-11-15T03:05:29;6.57;;;4.50;;
18405;SDS011;9329;48.720;9.588;2022-11-15T03:08:21;7.07;;;4.70;;
18405;SDS011;9329;48.720;9.588;2022-11-15T03:11:14;7.82;;;4.93;;
18405;SDS011;9329;48.720;9.588;2022-11-15T03:14:02;10.43;;;6.28;;
18405;SDS011;9329;48.720;9.588;2022-11-15T03:16:56;10.57;;;5.40;;
18405;SDS011;9329;48.720;9.588;2022-11-15T03:19:48;9.52;;;4.72;;
18405;SDS011;9329;48.720;9.588;2022-11-15T03:22:40;6.65;;;4.70;;
18405;SDS011;9329;48.720;9.588;2022-11-15T03:25:28;14.90;;;8.70;;
18405;SDS011;9329;48.720;9.588;2022-11-15T03:28:17;13.80;;;9.10;;
18405;SDS011;9329;48.720;9.588;2022-11-15T03:31:07;12.77;;;7.85;;
18405;SDS011;9329;48.720;9.588;2022-11-15T03:34:11;11.63;;;7.40;;
18405;SDS011;9329;48.720;9.588;2022-11-15T03:37:06;13.15;;;8.65;;
18405;SDS011;9329;48.720;9.588;2022-11-15T03:39:54;13.70;;;8.98;;
18405;SDS011;9329;48.720;9.588;2022-11-15T03:42:42;12.68;;;8.48;;
18405;SDS011;9329;48.720;9.588;2022-11-15T03:45:31;13.02;;;7.70;;
18405;SDS011;9329;48.720;9.588;2022-11-15T03:48:22;10.35;;;6.90;;
18405;SDS011;9329;48.720;9.588;2022-11-15T03:51:12;10.37;;;6.87;;
18405;SDS011;9329;48.720;9.588;2022-11-15T03:53:59;10.68;;;6.50;;
18405;SDS011;9329;48.720;9.588;2022-11-15T03:56:48;10.17;;;6.70;;
18405;SDS011;9329;48.720;9.588;2022-11-15T03:59:33;9.90;;;5.80;;
18405;SDS011;9329;48.720;9.588;2022-11-15T04:02:19;8.38;;;5.53;;
18405;SDS011;9329;48.720;9.588;2022-11-15T04:05:05;8.68;;;5.90;;
18405;SDS011;9329;48.720;9.588;2022-11-15T04:07:51;9.65;;;5.70;;
18405;SDS011;9329;48.720;9.588;2022-11-15T04:10:37;10.63;;;5.60;;
18405;SDS011;9329;48.720;9.588;2022-11-15T04:13:24;8.88;;;5.38;;
18405;SDS011;9329;48.720;9.588;2022-11-15T04:16:09;7.82;;;5.00;;
18405;SDS011;9329;48.720;9.588;2022-11-15T04:18:55;7.20;;;4.78;;
18405;SDS011;9329;48.720;9.588;2022-11-15T04:21:54;6.67;;;5.17;;
18405;SDS011;9329;48.720;9.588;2022-11-15T04:24:57;8.32;;;5.13;;
18405;SDS011;9329;48.720;9.588;2022-11-15T04:27:43;6.72;;;4.40;;
18405;SDS011;9329;48.720;9.588;2022-11-15T04:30:30;6.63;;;4.53;;
18405;SDS011;9329;48.720;9.588;2022-11-15T04:33:15;8.57;;;5.00;;
18405;SDS011;9329;48.720;9.588;2022-11-15T04:36:01;8.88;;;4.63;;
18405;SDS011;9329;48.720;9.588;2022-11-15T04:39:04;6.97;;;4.40;;
18405;SDS011;9329;48.720;9.588;2022-11-15T04:41:50;6.70;;;4.65;;
18405;SDS011;9329;48.720;9.588;2022-11-15T04:44:36;6.53;;;4.88;;
18405;SDS011;9329;48.720;9.588;2022-11-15T04:47:23;9.00;;;5.15;;
18405;SDS011;9329;48.720;9.588;2022-11-15T04:50:09;8.05;;;5.10;;
18405;SDS011;9329;48.720;9.588;2022-11-15T04:52:56;33.60;;;22.42;;
18405;SDS011;9329;48.720;9.588;2022-11-15T04:55:43;54.08;;;39.42;;
18405;SDS011;9329;48.720;9.588;2022-11-15T04:58:29;20.58;;;14.13;;
18405;SDS011;9329;48.720;9.588;2022-11-15T05:01:15;7.47;;;4.70;;
18405;SDS011;9329;48.720;9.588;2022-11-15T05:04:02;7.07;;;4.70;;
18405;SDS011;9329;48.720;9.588;2022-11-15T05:07:06;6.75;;;4.35;;
18405;SDS011;9329;48.720;9.588;2022-11-15T05:09:52;6.80;;;4.35;;
18405;SDS011;9329;48.720;9.588;2022-11-15T05:12:37;7.33;;;4.40;;
18405;SDS011;9329;48.720;9.588;2022-11-15T05:15:23;8.80;;;5.37;;
18405;SDS011;9329;48.720;9.588;2022-11-15T05:18:09;13.00;;;7.78;;
18405;SDS011;9329;48.720;9.588;2022-11-15T05:20:56;7.85;;;5.00;;
18405;SDS011;9329;48.720;9.588;2022-11-15T05:23:47;10.15;;;5.35;;
18405;SDS011;9329;48.720;9.588;2022-11-15T05:26:33;7.88;;;5.50;;
18405;SDS011;9329;48.720;9.588;2022-11-15T05:29:18;9.03;;;5.27;;
18405;SDS011;9329;48.720;9.588;2022-11-15T05:32:04;8.32;;;5.30;;
18405;SDS011;9329;48.720;9.588;2022-11-15T05:34:51;6.65;;;4.90;;
18405;SDS011;9329;48.720;9.588;2022-11-15T05:37:38;8.93;;;4.90;;
18405;SDS011;9329;48.720;9.588;2022-11-15T05:40:23;8.38;;;5.10;;
18405;SDS011;9329;48.720;9.588;2022-11-15T05:43:09;9.10;;;6.47;;
18405;SDS011;9329;48.720;9.588;2022-11-15T05:45:55;9.25;;;6.28;;
18405;SDS011;9329;48.720;9.588;2022-11-15T05:48:42;8.82;;;5.55;;
18405;SDS011;9329;48.720;9.588;2022-11-15T05:51:32;8.13;;;5.50;;
18405;SDS011;9329;48.720;9.588;2022-11-15T05:54:18;7.30;;;5.60;;
18405;SDS011;9329;48.720;9.588;2022-11-15T05:57:06;8.88;;;5.72;;
18405;SDS011;9329;48.720;9.588;2022-11-15T05:59:52;8.05;;;5.65;;
18405;SDS011;9329;48.720;9.588;2022-11-15T06:02:38;9.60;;;6.28;;
18405;SDS011;9329;48.720;9.588;2022-11-15T06:05:24;10.85;;;6.20;;
18405;SDS011;9329;48.720;9.588;2022-11-15T06:08:10;10.30;;;6.68;;
18405;SDS011;9329;48.720;9.588;2022-11-15T06:11:02;11.55;;;6.78;;
18405;SDS011;9329;48.720;9.588;2022-11-15T06:13:48;11.95;;;7.55;;
18405;SDS011;9329;48.720;9.588;2022-11-15T06:16:34;12.68;;;7.80;;
18405;SDS011;9329;48.720;9.588;2022-11-15T06:19:19;11.43;;;7.70;;
18405;SDS011;9329;48.720;9.588;2022-11-15T06:22:05;12.10;;;7.60;;
18405;SDS011;9329;48.720;9.588;2022-11-15T06:24:51;13.45;;;8.20;;
18405;SDS011;9329;48.720;9.588;2022-11-15T06:27:38;12.80;;;8.55;;
18405;SDS011;9329;48.720;9.588;2022-11-15T06:30:24;14.40;;;8.93;;
18405;SDS011;9329;48.720;9.588;2022-11-15T06:33:10;14.18;;;8.07;;
18405;SDS011;9329;48.720;9.588;2022-11-15T06:35:59;14.30;;;9.30;;
18405;SDS011;9329;48.720;9.588;2022-11-15T06:38:45;14.40;;;9.25;;
18405;SDS011;9329;48.720;9.588;2022-11-15T06:41:33;17.48;;;9.13;;
18405;SDS011;9329;48.720;9.588;2022-11-15T06:44:20;14.90;;;8.93;;
18405;SDS011;9329;48.720;9.588;2022-11-15T06:47:05;12.43;;;8.83;;
18405;SDS011;9329;48.720;9.588;2022-11-15T06:49:51;13.60;;;8.70;;
18405;SDS011;9329;48.720;9.588;2022-11-15T06:52:36;13.55;;;8.68;;
18405;SDS011;9329;48.720;9.588;2022-11-15T06:55:21;14.60;;;8.70;;
18405;SDS011;9329;48.720;9.588;2022-11-15T06:58:07;13.10;;;9.32;;
18405;SDS011;9329;48.720;9.588;2022-11-15T07:00:57;14.02;;;9.23;;
18405;SDS011;9329;48.720;9.588;2022-11-15T07:03:43;13.20;;;9.07;;
18405;SDS011;9329;48.720;9.588;2022-11-15T07:06:29;12.70;;;8.82;;
18405;SDS011;9329;48.720;9.588;2022-11-15T07:09:15;13.03;;;9.00;;
18405;SDS011;9329;48.720;9.588;2022-11-15T07:12:00;14.68;;;9.57;;
18405;SDS011;9329;48.720;9.588;2022-11-15T07:14:46;15.63;;;10.07;;
18405;SDS011;9329;48.720;9.588;2022-11-15T07:17:33;15.23;;;10.10;;
18405;SDS011;9329;48.720;9.588;2022-11-15T07:20:19;16.35;;;10.13;;
18405;SDS011;9329;48.720;9.588;2022-11-15T07:23:04;17.27;;;10.43;;
18405;SDS011;9329;48.720;9.588;2022-11-15T07:25:50;180.73;;;28.85;;
18405;SDS011;9329;48.720;9.588;2022-11-15T07:28:36;80.57;;;17.75;;
18405;SDS011;9329;48.720;9.588;2022-11-15T07:31:21;22.30;;;11.07;;
18405;SDS011;9329;48.720;9.588;2022-11-15T07:34:08;24.75;;;14.52;;
18405;SDS011;9329;48.720;9.588;2022-11-15T07:36:54;19.27;;;12.02;;
18405;SDS011;9329;48.720;9.588;2022-11-15T07:39:42;17.27;;;10.98;;
18405;SDS011;9329;48.720;9.588;2022-11-15T07:42:30;16.50;;;10.88;;
18405;SDS011;9329;48.720;9.588;2022-11-15T07:45:33;15.70;;;10.18;;
18405;SDS011;9329;48.720;9.588;2022-11-15T07:48:25;14.75;;;10.30;;
18405;SDS011;9329;48.720;9.588;2022-11-15T07:51:12;15.00;;;10.18;;
18405;SDS011;9329;48.720;9.588;2022-11-15T07:53:58;16.55;;;10.07;;
18405;SDS011;9329;48.720;9.588;2022-11-15T07:56:44;16.25;;;10.20;;
18405;SDS011;9329;48.720;9.588;2022-11-15T07:59:30;14.57;;;9.98;;
18405;SDS011;9329;48.720;9.588;2022-11-15T08:02:15;14.57;;;9.75;;
18405;SDS011;9329;48.720;9.588;2022-11-15T08:05:01;17.50;;;10.00;;
18405;SDS011;9329;48.720;9.588;2022-11-15T08:07:48;16.45;;;10.30;;
18405;SDS011;9329;48.720;9.588;2022-11-15T08:10:34;16.23;;;10.30;;
18405;SDS011;9329;48.720;9.588;2022-11-15T08:13:20;15.77;;;9.98;;
18405;SDS011;9329;48.720;9.588;2022-11-15T08:16:06;16.23;;;10.50;;
18405;SDS011;9329;48.720;9.588;2022-11-15T08:18:52;15.50;;;10.20;;
18405;SDS011;9329;48.720;9.588;2022-11-15T08:21:38;14.98;;;10.10;;
18405;SDS011;9329;48.720;9.588;2022-11-15T08:24:25;14.00;;;9.65;;
18405;SDS011;9329;48.720;9.588;2022-11-15T08:27:11;15.40;;;10.32;;
18405;SDS011;9329;48.720;9.588;2022-11-15T08:29:59;16.48;;;10.20;;
18405;SDS011;9329;48.720;9.588;2022-11-15T08:32:45;14.63;;;9.60;;
18405;SDS011;9329;48.720;9.588;2022-11-15T08:35:31;13.80;;;9.30;;
18405;SDS011;9329;48.720;9.588;2022-11-15T08:38:16;15.05;;;9.07;;
18405;SDS011;9329;48.720;9.588;2022-11-15T08:41:04;17.45;;;9.90;;
18405;SDS011;9329;48.720;9.588;2022-11-15T08:43:49;15.18;;;9.40;;
18405;SDS011;9329;48.720;9.588;2022-11-15T08:46:35;14.15;;;9.30;;
18405;SDS011;9329;48.720;9.588;2022-11-15T08:49:21;15.75;;;9.15;;
18405;SDS011;9329;48.720;9.588;2022-11-15T08:52:06;14.27;;;9.40;;
18405;SDS011;9329;48.720;9.588;2022-11-15T08:54:52;15.27;;;9.45;;
18405;SDS011;9329;48.720;9.588;2022-11-15T08:57:39;12.30;;;8.68;;
18405;SDS011;9329;48.720;9.588;2022-11-15T09:00:24;13.23;;;8.53;;
18405;SDS011;9329;48.720;9.588;2022-11-15T09:03:10;13.48;;;8.70;;
18405;SDS011;9329;48.720;9.588;2022-11-15T09:05:56;12.98;;;8.85;;
18405;SDS011;9329;48.720;9.588;2022-11-15T09:08:42;13.43;;;9.20;;
18405;SDS011;9329;48.720;9.588;2022-11-15T09:11:28;12.52;;;8.98;;
18405;SDS011;9329;48.720;9.588;2022-11-15T09:14:15;13.95;;;8.93;;
18405;SDS011;9329;48.720;9.588;2022-11-15T09:17:00;13.10;;;8.85;;
18405;SDS011;9329;48.720;9.588;2022-11-15T09:19:46;12.05;;;8.45;;
18405;SDS011;9329;48.720;9.588;2022-11-15T09:22:32;12.82;;;9.13;;
18405;SDS011;9329;48.720;9.588;2022-11-15T09:25:18;13.27;;;8.40;;
18405;SDS011;9329;48.720;9.588;2022-11-15T09:28:05;12.85;;;8.23;;
18405;SDS011;9329;48.720;9.588;2022-11-15T09:30:55;13.07;;;8.15;;
18405;SDS011;9329;48.720;9.588;2022-11-15T09:33:43;15.55;;;9.88;;
18405;SDS011;9329;48.720;9.588;2022-11-15T09:36:29;15.15;;;9.57;;
18405;SDS011;9329;48.720;9.588;2022-11-15T09:39:15;13.20;;;8.65;;
18405;SDS011;9329;48.720;9.588;2022-11-15T09:45:10;13.33;;;8.33;;
18405;SDS011;9329;48.720;9.588;2022-11-15T09:48:16;11.05;;;7.95;;
18405;SDS011;9329;48.720;9.588;2022-11-15T09:51:26;14.75;;;8.80;;
18405;SDS011;9329;48.720;9.588;2022-11-15T09:54:01;15.13;;;8.60;;
18405;SDS011;9329;48.720;9.588;2022-11-15T09:56:32;12.05;;;8.02;;
18405;SDS011;9329;48.720;9.588;2022-11-15T09:59:14;12.55;;;8.68;;
18405;SDS011;9329;48.720;9.588;2022-11-15T10:01:53;15.35;;;8.00;;
18405;SDS011;9329;48.720;9.588;2022-11-15T10:04:29;12.20;;;8.07;;
18405;SDS011;9329;48.720;9.588;2022-11-15T10:06:58;12.70;;;8.47;;
18405;SDS011;9329;48.720;9.588;2022-11-15T10:09:30;12.23;;;8.07;;
18405;SDS011;9329;48.720;9.588;2022-11-15T10:12:02;13.87;;;8.00;;
18405;SDS011;9329;48.720;9.588;2022-11-15T10:14:29;12.93;;;8.13;;
18405;SDS011;9329;48.720;9.588;2022-11-15T10:20:08;14.70;;;8.85;;
18405;SDS011;9329;48.720;9.588;2022-11-15T10:22:44;13.68;;;9.00;;
18405;SDS011;9329;48.720;9.588;2022-11-15T10:25:17;13.80;;;9.03;;
18405;SDS011;9329;48.720;9.588;2022-11-15T10:27:54;11.73;;;8.48;;
18405;SDS011;9329;48.720;9.588;2022-11-15T10:30:28;15.80;;;9.18;;
18405;SDS011;9329;48.720;9.588;2022-11-15T10:32:59;14.35;;;9.20;;
18405;SDS011;9329;48.720;9.588;2022-11-15T10:35:44;14.70;;;8.68;;
18405;SDS011;9329;48.720;9.588;2022-11-15T10:38:11;14.10;;;8.20;;
18405;SDS011;9329;48.720;9.588;2022-11-15T10:40:39;14.27;;;8.20;;
18405;SDS011;9329;48.720;9.588;2022-11-15T10:43:16;13.70;;;8.30;;
18405;SDS011;9329;48.720;9.588;2022-11-15T10:45:44;16.23;;;8.35;;
18405;SDS011;9329;48.720;9.588;2022-11-15T10:48:25;12.23;;;8.05;;
18405;SDS011;9329;48.720;9.588;2022-11-15T10:50:54;12.57;;;7.60;;
18405;SDS011;9329;48.720;9.588;2022-11-15T10:53:27;14.52;;;7.75;;
18405;SDS011;9329;48.720;9.588;2022-11-15T10:55:59;10.98;;;6.75;;
18405;SDS011;9329;48.720;9.588;2022-11-15T10:58:32;14.13;;;7.40;;
18405;SDS011;9329;48.720;9.588;2022-11-15T11:01:08;13.60;;;7.30;;
18405;SDS011;9329;48.720;9.588;2022-11-15T11:03:42;12.40;;;6.80;;
18405;SDS011;9329;48.720;9.588;2022-11-15T11:06:12;10.50;;;7.10;;
18405;SDS011;9329;48.720;9.588;2022-11-15T11:08:53;13.30;;;7.47;;
18405;SDS011;9329;48.720;9.588;2022-11-15T11:11:22;10.98;;;7.45;;
18405;SDS011;9329;48.720;9.588;2022-11-15T11:13:49;11.20;;;7.43;;
18405;SDS011;9329;48.720;9.588;2022-11-15T11:16:35;11.80;;;7.28;;
18405;SDS011;9329;48.720;9.588;2022-11-15T11:19:14;12.10;;;7.20;;
18405;SDS011;9329;48.720;9.588;2022-11-15T11:22:05;13.90;;;7.05;;
18405;SDS011;9329;48.720;9.588;2022-11-15T11:24:43;9.55;;;6.18;;
18405;SDS011;9329;48.720;9.588;2022-11-15T11:27:18;11.10;;;6.20;;
18405;SDS011;9329;48.720;9.588;2022-11-15T11:30:00;11.05;;;6.88;;
18405;SDS011;9329;48.720;9.588;2022-11-15T11:32:40;15.60;;;6.68;;
18405;SDS011;9329;48.720;9.588;2022-11-15T11:35:23;65.70;;;13.33;;
18405;SDS011;9329;48.720;9.588;2022-11-15T11:37:57;14.95;;;7.05;;
18405;SDS011;9329;48.720;9.588;2022-11-15T11:40:39;9.00;;;5.75;;
18405;SDS011;9329;48.720;9.588;2022-11-15T11:43:12;9.20;;;5.50;;
18405;SDS011;9329;48.720;9.588;2022-11-15T11:45:55;7.53;;;5.10;;
18405;SDS011;9329;48.720;9.588;2022-11-15T11:48:38;10.07;;;5.00;;
18405;SDS011;9329;48.720;9.588;2022-11-15T11:51:10;9.95;;;5.15;;
18405;SDS011;9329;48.720;9.588;2022-11-15T11:53:45;8.85;;;5.57;;
18405;SDS011;9329;48.720;9.588;2022-11-15T11:56:19;9.32;;;5.53;;
18405;SDS011;9329;48.720;9.588;2022-11-15T11:58:52;11.32;;;5.60;;
18405;SDS011;9329;48.720;9.588;2022-11-15T12:01:22;10.33;;;5.77;;
18405;SDS011;9329;48.720;9.588;2022-11-15T12:03:52;11.60;;;6.77;;
18405;SDS011;9329;48.720;9.588;2022-11-15T12:06:27;8.30;;;5.70;;
18405;SDS011;9329;48.720;9.588;2022-11-15T12:09:01;11.87;;;6.27;;
18405;SDS011;9329;48.720;9.588;2022-11-15T12:11:35;9.20;;;5.80;;
18405;SDS011;9329;48.720;9.588;2022-11-15T12:14:22;10.00;;;5.82;;
18405;SDS011;9329;48.720;9.588;2022-11-15T12:16:53;12.30;;;6.25;;
18405;SDS011;9329;48.720;9.588;2022-11-15T12:19:20;9.55;;;6.53;;
18405;SDS011;9329;48.720;9.588;2022-11-15T12:21:49;44.80;;;27.77;;
18405;SDS011;9329;48.720;9.588;2022-11-15T12:24:24;8.30;;;5.60;;
18405;SDS011;9329;48.720;9.588;2022-11-15T12:26:54;8.48;;;5.00;;
18405;SDS011;9329;48.720;9.588;2022-11-15T12:29:27;9.75;;;5.13;;
18405;SDS011;9329;48.720;9.588;2022-11-15T12:31:59;8.80;;;5.40;;
18405;SDS011;9329;48.720;9.588;2022-11-15T12:34:30;10.35;;;5.70;;
18405;SDS011;9329;48.720;9.588;2022-11-15T12:40:20;8.23;;;4.60;;
18405;SDS011;9329;48.720;9.588;2022-11-15T12:43:05;7.50;;;4.50;;
18405;SDS011;9329;48.720;9.588;2022-11-15T12:45:56;7.57;;;4.20;;
18405;SDS011;9329;48.720;9.588;2022-11-15T12:48:48;8.35;;;4.45;;
18405;SDS011;9329;48.720;9.588;2022-11-15T12:54:50;8.70;;;5.18;;
18405;SDS011;9329;48.720;9.588;2022-11-15T12:57:28;9.27;;;5.05;;
18405;SDS011;9329;48.720;9.588;2022-11-15T13:00:16;8.07;;;4.40;;
18405;SDS011;9329;48.720;9.588;2022-11-15T13:03:16;6.38;;;4.10;;
18405;SDS011;9329;48.720;9.588;2022-11-15T13:06:05;7.95;;;4.13;;
18405;SDS011;9329;48.720;9.588;2022-11-15T13:08:44;10.73;;;3.83;;
18405;SDS011;9329;48.720;9.588;2022-11-15T13:17:28;7.75;;;3.65;;
18405;SDS011;9329;48.720;9.588;2022-11-15T13:20:23;8.48;;;3.90;;
18405;SDS011;9329;48.720;9.588;2022-11-15T13:23:02;7.67;;;4.07;;
18405;SDS011;9329;48.720;9.588;2022-11-15T13:28:39;6.72;;;3.95;;
18405;SDS011;9329;48.720;9.588;2022-11-15T13:31:21;5.97;;;4.03;;
18405;SDS011;9329;48.720;9.588;2022-11-15T13:33:55;7.97;;;4.83;;
18405;SDS011;9329;48.720;9.588;2022-11-15T13:36:29;6.40;;;3.95;;
18405;SDS011;9329;48.720;9.588;2022-11-15T13:39:02;7.88;;;3.60;;
18405;SDS011;9329;48.720;9.588;2022-11-15T13:41:31;11.15;;;5.53;;
18405;SDS011;9329;48.720;9.588;2022-11-15T13:44:18;7.32;;;3.78;;
18405;SDS011;9329;48.720;9.588;2022-11-15T13:46:48;6.10;;;4.20;;
18405;SDS011;9329;48.720;9.588;2022-11-15T13:49:15;7.47;;;3.75;;
18405;SDS011;9329;48.720;9.588;2022-11-15T13:51:44;8.45;;;3.72;;
18405;SDS011;9329;48.720;9.588;2022-11-15T13:54:17;7.30;;;3.67;;
18405;SDS011;9329;48.720;9.588;2022-11-15T13:56:48;7.03;;;3.83;;
18405;SDS011;9329;48.720;9.588;2022-11-15T13:59:19;8.38;;;3.75;;
18405;SDS011;9329;48.720;9.588;2022-11-15T14:01:53;8.23;;;3.88;;
18405;SDS011;9329;48.720;9.588;2022-11-15T14:04:21;7.05;;;3.80;;
18405;SDS011;9329;48.720;9.588;2022-11-15T14:06:52;6.60;;;4.28;;
18405;SDS011;9329;48.720;9.588;2022-11-15T14:09:29;8.27;;;4.30;;
18405;SDS011;9329;48.720;9.588;2022-11-15T14:11:59;6.87;;;4.40;;
18405;SDS011;9329;48.720;9.588;2022-11-15T14:14:27;6.40;;;4.10;;
18405;SDS011;9329;48.720;9.588;2022-11-15T14:16:57;7.32;;;4.22;;
18405;SDS011;9329;48.720;9.588;2022-11-15T14:19:35;7.70;;;5.00;;
18405;SDS011;9329;48.720;9.588;2022-11-15T14:22:14;9.63;;;4.87;;
18405;SDS011;9329;48.720;9.588;2022-11-15T14:24:44;8.57;;;5.28;;
18405;SDS011;9329;48.720;9.588;2022-11-15T14:27:16;9.43;;;5.07;;
18405;SDS011;9329;48.720;9.588;2022-11-15T14:29:44;8.35;;;5.03;;
18405;SDS011;9329;48.720;9.588;2022-11-15T14:32:14;6.75;;;4.50;;
18405;SDS011;9329;48.720;9.588;2022-11-15T14:34:43;6.32;;;3.83;;
18405;SDS011;9329;48.720;9.588;2022-11-15T14:37:16;6.32;;;3.60;;
18405;SDS011;9329;48.720;9.588;2022-11-15T14:39:47;7.88;;;4.22;;
18405;SDS011;9329;48.720;9.588;2022-11-15T14:42:14;9.93;;;5.35;;
18405;SDS011;9329;48.720;9.588;2022-11-15T14:44:42;8.35;;;4.50;;
18405;SDS011;9329;48.720;9.588;2022-11-15T14:47:09;9.02;;;4.72;;
18405;SDS011;9329;48.720;9.588;2022-11-15T14:49:38;7.25;;;4.30;;
18405;SDS011;9329;48.720;9.588;2022-11-15T14:52:07;7.10;;;4.07;;
18405;SDS011;9329;48.720;9.588;2022-11-15T14:54:51;5.88;;;4.07;;
18405;SDS011;9329;48.720;9.588;2022-11-15T14:57:18;9.05;;;4.70;;
18405;SDS011;9329;48.720;9.588;2022-11-15T14:59:45;7.15;;;4.30;;
18405;SDS011;9329;48.720;9.588;2022-11-15T15:02:16;7.90;;;3.72;;
18405;SDS011;9329;48.720;9.588;2022-11-15T15:04:46;6.40;;;3.80;;
18405;SDS011;9329;48.720;9.588;2022-11-15T15:07:14;6.53;;;3.60;;
18405;SDS011;9329;48.720;9.588;2022-11-15T15:09:41;5.90;;;3.40;;
18405;SDS011;9329;48.720;9.588;2022-11-15T15:12:15;6.97;;;3.90;;
18405;SDS011;9329;48.720;9.588;2022-11-15T15:14:44;9.63;;;4.28;;
18405;SDS011;9329;48.720;9.588;2022-11-15T15:17:12;7.95;;;4.10;;
18405;SDS011;9329;48.720;9.588;2022-11-15T15:19:39;8.23;;;5.00;;
18405;SDS011;9329;48.720;9.588;2022-11-15T15:22:09;7.78;;;4.97;;
18405;SDS011;9329;48.720;9.588;2022-11-15T15:24:40;9.70;;;5.22;;
18405;SDS011;9329;48.720;9.588;2022-11-15T15:27:07;10.00;;;6.20;;
18405;SDS011;9329;48.720;9.588;2022-11-15T15:29:34;8.75;;;5.35;;
18405;SDS011;9329;48.720;9.588;2022-11-15T15:32:02;7.47;;;4.70;;
18405;SDS011;9329;48.720;9.588;2022-11-15T15:34:29;9.30;;;4.40;;
18405;SDS011;9329;48.720;9.588;2022-11-15T15:37:11;9.98;;;4.30;;
18405;SDS011;9329;48.720;9.588;2022-11-15T15:39:49;7.13;;;3.90;;
18405;SDS011;9329;48.720;9.588;2022-11-15T15:42:20;7.57;;;4.00;;
18405;SDS011;9329;48.720;9.588;2022-11-15T15:44:48;9.77;;;4.50;;
18405;SDS011;9329;48.720;9.588;2022-11-15T15:47:16;7.97;;;4.40;;
18405;SDS011;9329;48.720;9.588;2022-11-15T15:49:46;9.20;;;5.63;;
18405;SDS011;9329;48.720;9.588;2022-11-15T15:52:15;9.95;;;6.50;;
18405;SDS011;9329;48.720;9.588;2022-11-15T15:54:42;14.55;;;8.20;;
18405;SDS011;9329;48.720;9.588;2022-11-15T15:57:10;29.02;;;16.65;;
18405;SDS011;9329;48.720;9.588;2022-11-15T15:59:39;48.95;;;27.52;;
18405;SDS011;9329;48.720;9.588;2022-11-15T16:02:08;28.98;;;16.98;;
18405;SDS011;9329;48.720;9.588;2022-11-15T16:04:37;22.27;;;14.05;;
18405;SDS011;9329;48.720;9.588;2022-11-15T16:07:05;16.52;;;8.90;;
18405;SDS011;9329;48.720;9.588;2022-11-15T16:09:43;12.57;;;7.80;;
18405;SDS011;9329;48.720;9.588;2022-11-15T16:12:28;11.90;;;6.00;;
18405;SDS011;9329;48.720;9.588;2022-11-15T16:14:56;11.30;;;5.00;;
18405;SDS011;9329;48.720;9.588;2022-11-15T16:17:25;8.73;;;4.75;;
18405;SDS011;9329;48.720;9.588;2022-11-15T16:19:53;9.70;;;4.93;;
18405;SDS011;9329;48.720;9.588;2022-11-15T16:22:20;11.60;;;5.53;;
18405;SDS011;9329;48.720;9.588;2022-11-15T16:24:48;23.85;;;9.30;;
18405;SDS011;9329;48.720;9.588;2022-11-15T16:27:16;18.13;;;7.95;;
18405;SDS011;9329;48.720;9.588;2022-11-15T16:29:44;17.90;;;6.95;;
18405;SDS011;9329;48.720;9.588;2022-11-15T16:32:12;25.20;;;12.23;;
18405;SDS011;9329;48.720;9.588;2022-11-15T16:34:40;13.05;;;7.30;;
18405;SDS011;9329;48.720;9.588;2022-11-15T16:37:08;16.67;;;8.23;;
18405;SDS011;9329;48.720;9.588;2022-11-15T16:39:49;15.60;;;8.50;;
18405;SDS011;9329;48.720;9.588;2022-11-15T16:42:16;15.52;;;9.20;;
18405;SDS011;9329;48.720;9.588;2022-11-15T16:44:43;15.98;;;9.30;;